sensor_id;sensor_type;location;lat;lon;timestamp;pressure;altitude;pressure_sealevel;temperature;humidity
63500;BME280;49654;51.142;14.924;2023-06-24T06:25:37;99932.88;;;19.62;96.85
63500;BME280;49654;51.142;14.924;2023-06-24T06:28:05;99943.56;;;19.60;90.08
63500;BME280;49654;51.142;14.924;2023-06-24T06:30:31;99937.91;;;19.63;87.65
63500;BME280;49654;51.142;14.924;2023-06-24T06:32:58;99934.06;;;20.09;88.38
63500;BME280;49654;51.142;14.924;2023-06-24T06:35:25;99937.25;;;20.55;85.00
63500;BME280;49654;51.142;14.924;2023-06-24T06:37:52;99937.91;;;20.87;83.33
63500;BME280;49654;51.142;14.924;2023-06-24T06:40:20;99932.38;;;21.18;81.85
63500;BME280;49654;51.142;14.924;2023-06-24T06:42:48;99939.63;;;21.11;80.81
63500;BME280;49654;51.142;14.924;2023-06-24T06:45:15;99930.34;;;21.20;81.48
63500;BME280;49654;51.142;14.924;2023-06-24T06:47:42;99912.66;;;20.91;79.80
63500;BME280;49654;51.142;14.924;2023-06-24T06:50:10;99931.69;;;21.11;80.26
63500;BME280;49654;51.142;14.924;2023-06-24T06:52:36;99924.56;;;21.42;80.35
63500;BME280;49654;51.142;14.924;2023-06-24T06:55:05;99926.56;;;21.93;78.19
63500;BME280;49654;51.142;14.924;2023-06-24T06:57:32;99911.69;;;22.39;75.46
63500;BME280;49654;51.142;14.924;2023-06-24T07:00:00;99896.50;;;22.35;74.11
63500;BME280;49654;51.142;14.924;2023-06-24T07:02:27;99887.56;;;22.36;73.36
63500;BME280;49654;51.142;14.924;2023-06-24T07:04:54;99923.91;;;22.40;72.81
63500;BME280;49654;51.142;14.924;2023-06-24T07:07:21;99921.00;;;22.42;71.56
63500;BME280;49654;51.142;14.924;2023-06-24T07:09:48;99927.81;;;22.26;71.24
63500;BME280;49654;51.142;14.924;2023-06-24T07:12:15;99930.81;;;22.06;70.33
63500;BME280;49654;51.142;14.924;2023-06-24T07:14:42;99932.66;;;22.17;71.23
63500;BME280;49654;51.142;14.924;2023-06-24T07:17:10;99922.72;;;22.48;71.08
63500;BME280;49654;51.142;14.924;2023-06-24T07:19:37;99922.84;;;22.82;69.08
63500;BME280;49654;51.142;14.924;2023-06-24T07:22:04;99927.50;;;23.03;64.66
63500;BME280;49654;51.142;14.924;2023-06-24T07:24:31;99902.00;;;22.85;67.62
63500;BME280;49654;51.142;14.924;2023-06-24T07:26:58;99938.97;;;22.80;65.53
63500;BME280;49654;51.142;14.924;2023-06-24T07:29:25;99942.09;;;22.77;65.34
63500;BME280;49654;51.142;14.924;2023-06-24T07:31:52;99936.63;;;22.55;66.87
63500;BME280;49654;51.142;14.924;2023-06-24T07:34:20;99946.66;;;21.71;67.62
63500;BME280;49654;51.142;14.924;2023-06-24T07:36:47;99942.72;;;21.62;70.99
63500;BME280;49654;51.142;14.924;2023-06-24T07:39:16;99942.66;;;21.80;71.80
63500;BME280;49654;51.142;14.924;2023-06-24T07:41:43;99937.81;;;22.00;71.84
63500;BME280;49654;51.142;14.924;2023-06-24T07:44:10;99933.88;;;22.62;70.70
63500;BME280;49654;51.142;14.924;2023-06-24T07:46:37;99933.19;;;23.23;64.64
63500;BME280;49654;51.142;14.924;2023-06-24T07:49:04;99931.81;;;24.05;61.42
63500;BME280;49654;51.142;14.924;2023-06-24T07:51:32;99933.19;;;24.46;59.72
63500;BME280;49654;51.142;14.924;2023-06-24T07:54:01;99931.47;;;24.18;60.33
63500;BME280;49654;51.142;14.924;2023-06-24T07:56:28;99940.84;;;23.54;60.80
63500;BME280;49654;51.142;14.924;2023-06-24T07:58:55;99931.53;;;22.65;65.43
63500;BME280;49654;51.142;14.924;2023-06-24T08:01:21;99955.41;;;22.42;66.89
63500;BME280;49654;51.142;14.924;2023-06-24T08:03:48;99950.13;;;22.07;68.05
63500;BME280;49654;51.142;14.924;2023-06-24T08:06:15;99950.81;;;22.37;70.97
63500;BME280;49654;51.142;14.924;2023-06-24T08:08:43;99947.38;;;22.37;65.95
63500;BME280;49654;51.142;14.924;2023-06-24T08:11:12;99947.31;;;22.60;68.22
63500;BME280;49654;51.142;14.924;2023-06-24T08:13:39;99946.53;;;22.48;65.11
63500;BME280;49654;51.142;14.924;2023-06-24T08:16:06;99943.34;;;22.34;67.46
63500;BME280;49654;51.142;14.924;2023-06-24T08:18:33;99929.41;;;22.39;66.88
63500;BME280;49654;51.142;14.924;2023-06-24T08:21:00;99948.72;;;22.51;68.14
63500;BME280;49654;51.142;14.924;2023-06-24T08:23:27;99953.00;;;23.21;67.78
63500;BME280;49654;51.142;14.924;2023-06-24T08:25:55;99944.88;;;23.56;65.05
63500;BME280;49654;51.142;14.924;2023-06-24T08:28:22;99947.44;;;23.51;65.56
63500;BME280;49654;51.142;14.924;2023-06-24T08:30:49;99947.91;;;23.48;65.18
63500;BME280;49654;51.142;14.924;2023-06-24T08:33:16;99942.34;;;23.49;63.15
63500;BME280;49654;51.142;14.924;2023-06-24T08:35:43;99942.38;;;23.21;64.28
63500;BME280;49654;51.142;14.924;2023-06-24T08:38:10;99885.50;;;22.95;64.90
63500;BME280;49654;51.142;14.924;2023-06-24T08:40:38;99933.91;;;23.36;62.65
63500;BME280;49654;51.142;14.924;2023-06-24T08:43:07;99908.13;;;23.14;61.99
63500;BME280;49654;51.142;14.924;2023-06-24T08:45:34;99939.22;;;23.36;63.23
63500;BME280;49654;51.142;14.924;2023-06-24T08:48:01;99846.19;;;23.04;59.43
63500;BME280;49654;51.142;14.924;2023-06-24T08:50:34;99939.28;;;23.69;61.07
63500;BME280;49654;51.142;14.924;2023-06-24T08:53:03;99881.47;;;23.38;59.73
63500;BME280;49654;51.142;14.924;2023-06-24T08:55:35;99892.63;;;23.57;60.61
63500;BME280;49654;51.142;14.924;2023-06-24T08:58:04;99909.69;;;24.16;56.08
63500;BME280;49654;51.142;14.924;2023-06-24T09:00:33;99856.56;;;24.55;56.61
63500;BME280;49654;51.142;14.924;2023-06-24T09:03:00;99912.59;;;24.81;54.41
63500;BME280;49654;51.142;14.924;2023-06-24T09:05:27;99885.53;;;23.96;56.44
63500;BME280;49654;51.142;14.924;2023-06-24T09:07:54;99934.97;;;23.85;59.31
63500;BME280;49654;51.142;14.924;2023-06-24T09:10:29;99940.03;;;24.04;59.67
63500;BME280;49654;51.142;14.924;2023-06-24T09:12:57;99928.72;;;23.74;56.60
63500;BME280;49654;51.142;14.924;2023-06-24T09:15:24;99939.59;;;23.90;56.98
63500;BME280;49654;51.142;14.924;2023-06-24T09:17:52;99925.19;;;24.24;55.47
63500;BME280;49654;51.142;14.924;2023-06-24T09:20:19;99919.69;;;24.31;55.28
63500;BME280;49654;51.142;14.924;2023-06-24T09:22:48;99828.38;;;23.66;54.35
63500;BME280;49654;51.142;14.924;2023-06-24T09:25:16;99875.00;;;24.01;54.45
63500;BME280;49654;51.142;14.924;2023-06-24T09:27:47;99928.88;;;24.23;52.73
63500;BME280;49654;51.142;14.924;2023-06-24T09:30:18;99880.59;;;24.70;52.21
63500;BME280;49654;51.142;14.924;2023-06-24T09:32:46;99932.84;;;25.36;50.56
63500;BME280;49654;51.142;14.924;2023-06-24T09:35:16;99901.69;;;25.31;50.45
63500;BME280;49654;51.142;14.924;2023-06-24T09:37:48;99880.09;;;25.01;49.78
63500;BME280;49654;51.142;14.924;2023-06-24T09:40:16;99942.31;;;25.59;51.76
63500;BME280;49654;51.142;14.924;2023-06-24T09:42:53;99951.78;;;25.77;52.82
63500;BME280;49654;51.142;14.924;2023-06-24T09:45:22;99890.19;;;25.26;53.64
63500;BME280;49654;51.142;14.924;2023-06-24T09:47:49;99954.69;;;24.67;55.38
63500;BME280;49654;51.142;14.924;2023-06-24T09:50:17;99929.72;;;24.24;56.78
63500;BME280;49654;51.142;14.924;2023-06-24T09:52:45;99950.91;;;24.41;56.88
63500;BME280;49654;51.142;14.924;2023-06-24T09:55:13;99946.47;;;23.91;58.91
63500;BME280;49654;51.142;14.924;2023-06-24T09:57:41;99947.50;;;24.07;57.98
63500;BME280;49654;51.142;14.924;2023-06-24T10:00:12;99927.13;;;24.29;54.83
63500;BME280;49654;51.142;14.924;2023-06-24T10:02:42;99909.75;;;24.38;55.12
63500;BME280;49654;51.142;14.924;2023-06-24T10:05:09;99885.44;;;24.30;55.82
63500;BME280;49654;51.142;14.924;2023-06-24T10:07:39;99919.66;;;24.48;57.42
63500;BME280;49654;51.142;14.924;2023-06-24T10:10:07;99941.72;;;24.32;56.40
63500;BME280;49654;51.142;14.924;2023-06-24T10:12:35;99944.63;;;25.50;53.19
63500;BME280;49654;51.142;14.924;2023-06-24T10:15:03;99879.63;;;27.55;47.90
63500;BME280;49654;51.142;14.924;2023-06-24T10:17:30;99940.94;;;29.54;42.71
63500;BME280;49654;51.142;14.924;2023-06-24T10:19:57;99936.41;;;29.55;41.61
63500;BME280;49654;51.142;14.924;2023-06-24T10:22:25;99910.00;;;29.77;42.04
63500;BME280;49654;51.142;14.924;2023-06-24T10:24:59;99899.91;;;31.96;37.70
63500;BME280;49654;51.142;14.924;2023-06-24T10:27:26;99929.56;;;32.82;36.20
63500;BME280;49654;51.142;14.924;2023-06-24T10:30:02;99880.25;;;30.88;37.58
63500;BME280;49654;51.142;14.924;2023-06-24T10:32:40;99930.69;;;28.98;41.96
63500;BME280;49654;51.142;14.924;2023-06-24T10:35:21;99941.44;;;26.85;46.54
63500;BME280;49654;51.142;14.924;2023-06-24T10:37:54;99854.34;;;25.28;48.44
63500;BME280;49654;51.142;14.924;2023-06-24T10:40:35;99885.88;;;25.14;50.73
63500;BME280;49654;51.142;14.924;2023-06-24T10:43:25;99935.13;;;25.59;50.19
63500;BME280;49654;51.142;14.924;2023-06-24T10:45:53;99886.34;;;24.84;50.88
63500;BME280;49654;51.142;14.924;2023-06-24T10:48:21;99874.66;;;24.85;52.12
63500;BME280;49654;51.142;14.924;2023-06-24T10:50:48;99919.53;;;25.36;50.37
63500;BME280;49654;51.142;14.924;2023-06-24T10:53:16;99931.22;;;26.04;48.79
63500;BME280;49654;51.142;14.924;2023-06-24T10:55:46;99931.72;;;25.64;49.30
63500;BME280;49654;51.142;14.924;2023-06-24T10:58:14;99913.97;;;25.37;49.41
63500;BME280;49654;51.142;14.924;2023-06-24T11:00:42;99897.59;;;26.45;49.13
63500;BME280;49654;51.142;14.924;2023-06-24T11:03:11;99910.31;;;27.62;45.08
63500;BME280;49654;51.142;14.924;2023-06-24T11:05:39;99896.16;;;27.82;42.30
63500;BME280;49654;51.142;14.924;2023-06-24T11:08:06;99916.72;;;27.20;45.02
63500;BME280;49654;51.142;14.924;2023-06-24T11:10:41;99902.66;;;25.94;46.25
63500;BME280;49654;51.142;14.924;2023-06-24T11:13:10;99915.81;;;25.37;47.82
63500;BME280;49654;51.142;14.924;2023-06-24T11:15:38;99903.91;;;25.12;47.67
63500;BME280;49654;51.142;14.924;2023-06-24T11:18:07;99911.28;;;24.83;50.07
63500;BME280;49654;51.142;14.924;2023-06-24T11:20:36;99877.34;;;25.50;51.09
63500;BME280;49654;51.142;14.924;2023-06-24T11:23:06;99871.81;;;29.37;42.72
63500;BME280;49654;51.142;14.924;2023-06-24T11:25:38;99899.91;;;31.35;37.72
63500;BME280;49654;51.142;14.924;2023-06-24T11:28:13;99898.97;;;32.92;35.08
63500;BME280;49654;51.142;14.924;2023-06-24T11:30:40;99880.00;;;31.97;35.21
63500;BME280;49654;51.142;14.924;2023-06-24T11:33:07;99895.00;;;32.11;34.50
63500;BME280;49654;51.142;14.924;2023-06-24T11:35:34;99887.06;;;29.95;37.74
63500;BME280;49654;51.142;14.924;2023-06-24T11:38:03;99896.50;;;31.30;35.94
63500;BME280;49654;51.142;14.924;2023-06-24T11:40:31;99901.41;;;30.90;36.84
63500;BME280;49654;51.142;14.924;2023-06-24T11:43:00;99853.63;;;32.62;35.54
63500;BME280;49654;51.142;14.924;2023-06-24T11:45:31;99890.44;;;34.23;32.43
63500;BME280;49654;51.142;14.924;2023-06-24T11:48:02;99895.22;;;33.86;31.65
63500;BME280;49654;51.142;14.924;2023-06-24T11:50:30;99891.19;;;33.97;31.49
63500;BME280;49654;51.142;14.924;2023-06-24T11:52:57;99881.91;;;35.16;28.62
63500;BME280;49654;51.142;14.924;2023-06-24T11:55:25;99893.91;;;36.42;26.27
63500;BME280;49654;51.142;14.924;2023-06-24T11:57:55;99885.28;;;34.87;28.77
63500;BME280;49654;51.142;14.924;2023-06-24T12:00:24;99898.06;;;34.38;30.66
63500;BME280;49654;51.142;14.924;2023-06-24T12:02:54;99876.41;;;35.98;27.32
63500;BME280;49654;51.142;14.924;2023-06-24T12:05:26;99876.19;;;35.18;27.30
63500;BME280;49654;51.142;14.924;2023-06-24T12:07:55;99862.69;;;36.03;28.64
63500;BME280;49654;51.142;14.924;2023-06-24T12:10:22;99858.66;;;38.12;24.16
63500;BME280;49654;51.142;14.924;2023-06-24T12:12:50;99853.44;;;38.19;24.62
63500;BME280;49654;51.142;14.924;2023-06-24T12:15:17;99878.66;;;38.07;23.60
63500;BME280;49654;51.142;14.924;2023-06-24T12:17:43;99877.28;;;36.94;25.77
63500;BME280;49654;51.142;14.924;2023-06-24T12:20:13;99874.03;;;37.58;25.22
63500;BME280;49654;51.142;14.924;2023-06-24T12:22:41;99868.06;;;39.11;22.29
63500;BME280;49654;51.142;14.924;2023-06-24T12:25:09;99866.91;;;38.03;24.52
63500;BME280;49654;51.142;14.924;2023-06-24T12:27:36;99876.69;;;34.94;27.93
63500;BME280;49654;51.142;14.924;2023-06-24T12:30:04;99809.56;;;33.57;29.38
63500;BME280;49654;51.142;14.924;2023-06-24T12:32:31;99845.50;;;37.03;26.26
63500;BME280;49654;51.142;14.924;2023-06-24T12:34:58;99863.44;;;37.08;24.28
63500;BME280;49654;51.142;14.924;2023-06-24T12:37:28;99854.72;;;37.35;24.18
63500;BME280;49654;51.142;14.924;2023-06-24T12:39:55;99848.75;;;37.67;23.37
63500;BME280;49654;51.142;14.924;2023-06-24T12:42:22;99856.00;;;39.24;23.39
63500;BME280;49654;51.142;14.924;2023-06-24T12:44:49;99853.72;;;39.58;22.02
63500;BME280;49654;51.142;14.924;2023-06-24T12:47:15;99852.88;;;40.24;19.41
63500;BME280;49654;51.142;14.924;2023-06-24T12:49:42;99833.88;;;39.10;21.26
63500;BME280;49654;51.142;14.924;2023-06-24T12:52:09;99814.84;;;40.89;20.15
63500;BME280;49654;51.142;14.924;2023-06-24T12:54:37;99818.22;;;39.50;20.02
63500;BME280;49654;51.142;14.924;2023-06-24T12:57:05;99829.84;;;39.03;21.94
63500;BME280;49654;51.142;14.924;2023-06-24T12:59:32;99852.41;;;40.57;19.80
63500;BME280;49654;51.142;14.924;2023-06-24T13:01:59;99848.31;;;40.28;20.17
63500;BME280;49654;51.142;14.924;2023-06-24T13:04:26;99828.66;;;40.38;19.94
63500;BME280;49654;51.142;14.924;2023-06-24T13:06:53;99827.47;;;39.65;20.64
63500;BME280;49654;51.142;14.924;2023-06-24T13:09:20;99837.25;;;40.79;20.48
63500;BME280;49654;51.142;14.924;2023-06-24T13:11:48;99836.13;;;42.32;19.09
63500;BME280;49654;51.142;14.924;2023-06-24T13:14:16;99811.50;;;41.19;19.28
63500;BME280;49654;51.142;14.924;2023-06-24T13:16:43;99836.50;;;41.47;19.20
63500;BME280;49654;51.142;14.924;2023-06-24T13:19:10;99826.81;;;40.42;18.94
63500;BME280;49654;51.142;14.924;2023-06-24T13:21:38;99837.50;;;39.45;21.78
63500;BME280;49654;51.142;14.924;2023-06-24T13:24:07;99820.47;;;39.99;20.39
63500;BME280;49654;51.142;14.924;2023-06-24T13:26:34;99794.25;;;41.11;19.34
63500;BME280;49654;51.142;14.924;2023-06-24T13:29:02;99819.88;;;41.83;17.80
63500;BME280;49654;51.142;14.924;2023-06-24T13:31:29;99829.19;;;40.63;18.38
63500;BME280;49654;51.142;14.924;2023-06-24T13:33:56;99815.38;;;40.95;18.52
63500;BME280;49654;51.142;14.924;2023-06-24T13:36:31;99828.38;;;39.69;20.18
63500;BME280;49654;51.142;14.924;2023-06-24T13:38:58;99817.63;;;39.92;19.26
63500;BME280;49654;51.142;14.924;2023-06-24T13:41:25;99845.81;;;41.99;17.32
63500;BME280;49654;51.142;14.924;2023-06-24T13:43:55;99841.81;;;42.20;16.67
63500;BME280;49654;51.142;14.924;2023-06-24T13:46:24;99842.16;;;40.93;18.39
63500;BME280;49654;51.142;14.924;2023-06-24T13:48:51;99830.47;;;38.69;20.60
63500;BME280;49654;51.142;14.924;2023-06-24T13:51:18;99853.16;;;37.71;21.83
63500;BME280;49654;51.142;14.924;2023-06-24T13:53:46;99842.81;;;38.38;20.02
63500;BME280;49654;51.142;14.924;2023-06-24T13:56:14;99832.81;;;40.13;19.61
63500;BME280;49654;51.142;14.924;2023-06-24T13:58:41;99832.25;;;41.27;19.83
63500;BME280;49654;51.142;14.924;2023-06-24T14:01:08;99824.50;;;41.06;17.90
63500;BME280;49654;51.142;14.924;2023-06-24T14:03:37;99789.50;;;42.48;17.86
63500;BME280;49654;51.142;14.924;2023-06-24T14:06:04;99823.25;;;43.07;16.10
63500;BME280;49654;51.142;14.924;2023-06-24T14:08:32;99825.53;;;43.46;16.46
63500;BME280;49654;51.142;14.924;2023-06-24T14:11:00;99814.66;;;43.57;14.33
63500;BME280;49654;51.142;14.924;2023-06-24T14:13:28;99822.28;;;41.88;16.57
63500;BME280;49654;51.142;14.924;2023-06-24T14:15:55;99780.72;;;40.11;17.19
63500;BME280;49654;51.142;14.924;2023-06-24T14:18:22;99799.84;;;40.76;17.63
63500;BME280;49654;51.142;14.924;2023-06-24T14:20:51;99808.19;;;41.33;16.56
63500;BME280;49654;51.142;14.924;2023-06-24T14:23:18;99775.78;;;40.36;17.22
63500;BME280;49654;51.142;14.924;2023-06-24T14:25:45;99823.72;;;41.06;17.32
63500;BME280;49654;51.142;14.924;2023-06-24T14:28:12;99804.34;;;42.50;16.07
63500;BME280;49654;51.142;14.924;2023-06-24T14:30:39;99815.22;;;41.83;17.31
63500;BME280;49654;51.142;14.924;2023-06-24T14:33:07;99814.00;;;42.78;14.92
63500;BME280;49654;51.142;14.924;2023-06-24T14:35:34;99819.22;;;40.94;17.30
63500;BME280;49654;51.142;14.924;2023-06-24T14:38:02;99805.38;;;43.13;15.09
63500;BME280;49654;51.142;14.924;2023-06-24T14:40:30;99799.84;;;42.65;17.06
63500;BME280;49654;51.142;14.924;2023-06-24T14:42:57;99810.22;;;42.19;16.98
63500;BME280;49654;51.142;14.924;2023-06-24T14:45:24;99780.03;;;42.38;16.84
63500;BME280;49654;51.142;14.924;2023-06-24T14:47:51;99797.91;;;43.65;15.09
63500;BME280;49654;51.142;14.924;2023-06-24T14:50:18;99796.69;;;44.46;14.74
63500;BME280;49654;51.142;14.924;2023-06-24T14:52:45;99801.38;;;44.42;13.07
63500;BME280;49654;51.142;14.924;2023-06-24T14:55:13;99803.22;;;44.10;13.19
63500;BME280;49654;51.142;14.924;2023-06-24T14:57:40;99804.56;;;41.74;16.85
63500;BME280;49654;51.142;14.924;2023-06-24T15:00:08;99800.44;;;42.51;15.49
63500;BME280;49654;51.142;14.924;2023-06-24T15:02:35;99813.41;;;42.58;14.72
63500;BME280;49654;51.142;14.924;2023-06-24T15:05:05;99804.06;;;41.39;16.62
63500;BME280;49654;51.142;14.924;2023-06-24T15:07:32;99807.38;;;42.42;16.44
63500;BME280;49654;51.142;14.924;2023-06-24T15:09:59;99806.63;;;42.82;15.85
63500;BME280;49654;51.142;14.924;2023-06-24T15:12:27;99799.44;;;41.69;16.90
63500;BME280;49654;51.142;14.924;2023-06-24T15:14:54;99790.81;;;44.37;14.54
63500;BME280;49654;51.142;14.924;2023-06-24T15:17:21;99792.41;;;42.29;15.44
63500;BME280;49654;51.142;14.924;2023-06-24T15:19:48;99785.56;;;41.28;15.99
63500;BME280;49654;51.142;14.924;2023-06-24T15:22:15;99792.47;;;41.22;16.77
63500;BME280;49654;51.142;14.924;2023-06-24T15:24:42;99785.25;;;41.34;17.60
63500;BME280;49654;51.142;14.924;2023-06-24T15:27:10;99782.66;;;43.06;15.36
63500;BME280;49654;51.142;14.924;2023-06-24T15:29:38;99775.56;;;43.01;14.99
63500;BME280;49654;51.142;14.924;2023-06-24T15:32:06;99783.91;;;41.73;16.08
63500;BME280;49654;51.142;14.924;2023-06-24T15:34:33;99780.00;;;40.75;17.53
63500;BME280;49654;51.142;14.924;2023-06-24T15:37:00;99776.50;;;40.75;17.65
63500;BME280;49654;51.142;14.924;2023-06-24T15:39:27;99776.97;;;41.00;16.97
63500;BME280;49654;51.142;14.924;2023-06-24T15:41:53;99775.25;;;40.69;16.73
63500;BME280;49654;51.142;14.924;2023-06-24T15:44:20;99766.09;;;42.13;16.30
63500;BME280;49654;51.142;14.924;2023-06-24T15:46:48;99725.41;;;40.65;17.85
63500;BME280;49654;51.142;14.924;2023-06-24T15:49:16;99758.06;;;41.64;17.96
63500;BME280;49654;51.142;14.924;2023-06-24T15:51:43;99759.91;;;42.16;15.57
63500;BME280;49654;51.142;14.924;2023-06-24T15:54:10;99764.41;;;39.40;17.48
63500;BME280;49654;51.142;14.924;2023-06-24T15:56:37;99763.94;;;41.13;18.73
63500;BME280;49654;51.142;14.924;2023-06-24T15:59:04;99751.47;;;41.12;16.65
63500;BME280;49654;51.142;14.924;2023-06-24T16:01:30;99753.75;;;41.10;16.84
63500;BME280;49654;51.142;14.924;2023-06-24T16:03:59;99752.16;;;40.86;16.05
63500;BME280;49654;51.142;14.924;2023-06-24T16:06:26;99743.03;;;39.74;17.32
63500;BME280;49654;51.142;14.924;2023-06-24T16:08:52;99757.13;;;41.26;16.28
63500;BME280;49654;51.142;14.924;2023-06-24T16:11:19;99747.91;;;41.91;15.25
63500;BME280;49654;51.142;14.924;2023-06-24T16:13:46;99750.97;;;40.41;17.76
63500;BME280;49654;51.142;14.924;2023-06-24T16:16:13;99748.75;;;40.46;17.21
63500;BME280;49654;51.142;14.924;2023-06-24T16:18:40;99750.00;;;39.55;17.01
63500;BME280;49654;51.142;14.924;2023-06-24T16:21:08;99758.19;;;38.92;18.82
63500;BME280;49654;51.142;14.924;2023-06-24T16:23:35;99750.00;;;36.82;21.09
63500;BME280;49654;51.142;14.924;2023-06-24T16:26:02;99755.94;;;37.70;19.96
63500;BME280;49654;51.142;14.924;2023-06-24T16:28:30;99765.88;;;37.29;20.72
63500;BME280;49654;51.142;14.924;2023-06-24T16:30:57;99755.78;;;38.31;20.15
63500;BME280;49654;51.142;14.924;2023-06-24T16:33:24;99759.78;;;39.60;19.30
63500;BME280;49654;51.142;14.924;2023-06-24T16:35:51;99764.97;;;37.86;20.63
63500;BME280;49654;51.142;14.924;2023-06-24T16:38:19;99763.63;;;37.68;19.77
63500;BME280;49654;51.142;14.924;2023-06-24T16:40:46;99748.28;;;38.12;20.85
63500;BME280;49654;51.142;14.924;2023-06-24T16:43:13;99753.09;;;37.78;20.03
63500;BME280;49654;51.142;14.924;2023-06-24T16:45:40;99756.41;;;37.59;20.09
63500;BME280;49654;51.142;14.924;2023-06-24T16:48:07;99731.97;;;36.86;20.19
63500;BME280;49654;51.142;14.924;2023-06-24T16:50:33;99753.56;;;36.95;19.93
63500;BME280;49654;51.142;14.924;2023-06-24T16:53:01;99747.00;;;35.37;21.42
63500;BME280;49654;51.142;14.924;2023-06-24T16:55:29;99759.94;;;35.82;23.08
63500;BME280;49654;51.142;14.924;2023-06-24T16:57:56;99762.47;;;36.29;22.09
63500;BME280;49654;51.142;14.924;2023-06-24T17:00:23;99759.44;;;37.21;20.73
63500;BME280;49654;51.142;14.924;2023-06-24T17:02:50;99752.03;;;37.30;20.41
63500;BME280;49654;51.142;14.924;2023-06-24T17:05:17;99719.69;;;37.87;20.43
63500;BME280;49654;51.142;14.924;2023-06-24T17:07:44;99747.16;;;38.13;19.53
63500;BME280;49654;51.142;14.924;2023-06-24T17:10:11;99752.06;;;36.85;21.46
63500;BME280;49654;51.142;14.924;2023-06-24T17:12:40;99748.56;;;35.97;22.31
63500;BME280;49654;51.142;14.924;2023-06-24T17:15:08;99754.22;;;34.17;24.11
63500;BME280;49654;51.142;14.924;2023-06-24T17:17:35;99762.00;;;31.73;27.01
63500;BME280;49654;51.142;14.924;2023-06-24T17:20:05;99758.06;;;31.56;26.79
63500;BME280;49654;51.142;14.924;2023-06-24T17:22:32;99758.91;;;32.65;25.21
63500;BME280;49654;51.142;14.924;2023-06-24T17:24:59;99751.31;;;33.70;23.69
63500;BME280;49654;51.142;14.924;2023-06-24T17:27:26;99742.19;;;34.23;23.23
63500;BME280;49654;51.142;14.924;2023-06-24T17:29:55;99738.22;;;35.10;23.21
63500;BME280;49654;51.142;14.924;2023-06-24T17:32:23;99696.09;;;35.98;21.76
63500;BME280;49654;51.142;14.924;2023-06-24T17:34:50;99710.44;;;35.90;21.44
63500;BME280;49654;51.142;14.924;2023-06-24T17:37:17;99745.03;;;35.76;21.37
63500;BME280;49654;51.142;14.924;2023-06-24T17:39:44;99737.38;;;35.57;22.22
63500;BME280;49654;51.142;14.924;2023-06-24T17:42:11;99736.28;;;35.79;22.66
63500;BME280;49654;51.142;14.924;2023-06-24T17:44:38;99739.25;;;34.80;24.25
63500;BME280;49654;51.142;14.924;2023-06-24T17:47:07;99662.13;;;34.14;24.74
63500;BME280;49654;51.142;14.924;2023-06-24T17:49:34;99748.81;;;34.60;23.61
63500;BME280;49654;51.142;14.924;2023-06-24T17:52:01;99746.28;;;34.46;23.92
63500;BME280;49654;51.142;14.924;2023-06-24T17:54:28;99750.31;;;33.08;25.14
63500;BME280;49654;51.142;14.924;2023-06-24T17:56:55;99755.41;;;33.19;24.77
63500;BME280;49654;51.142;14.924;2023-06-24T17:59:22;99758.94;;;33.28;25.55
63500;BME280;49654;51.142;14.924;2023-06-24T18:01:49;99755.72;;;33.57;25.98
63500;BME280;49654;51.142;14.924;2023-06-24T18:04:17;99751.94;;;32.64;25.36
63500;BME280;49654;51.142;14.924;2023-06-24T18:06:44;99740.28;;;32.33;26.44
63500;BME280;49654;51.142;14.924;2023-06-24T18:09:11;99752.63;;;32.11;28.83
63500;BME280;49654;51.142;14.924;2023-06-24T18:11:38;99750.19;;;31.87;28.68
63500;BME280;49654;51.142;14.924;2023-06-24T18:14:07;99752.38;;;31.30;28.34
63500;BME280;49654;51.142;14.924;2023-06-24T18:16:39;99758.09;;;30.07;30.43
63500;BME280;49654;51.142;14.924;2023-06-24T18:19:06;99759.47;;;29.61;34.89
63500;BME280;49654;51.142;14.924;2023-06-24T18:21:35;99766.41;;;28.80;36.08
63500;BME280;49654;51.142;14.924;2023-06-24T18:24:02;99757.94;;;27.74;38.01
63500;BME280;49654;51.142;14.924;2023-06-24T18:26:29;99767.69;;;26.83;40.68
63500;BME280;49654;51.142;14.924;2023-06-24T18:28:56;99628.91;;;25.25;42.52
63500;BME280;49654;51.142;14.924;2023-06-24T18:31:24;99764.91;;;25.54;44.41
63500;BME280;49654;51.142;14.924;2023-06-24T18:33:51;99772.81;;;25.07;45.71
63500;BME280;49654;51.142;14.924;2023-06-24T18:36:18;99776.97;;;24.60;47.15
63500;BME280;49654;51.142;14.924;2023-06-24T18:38:46;99776.72;;;24.13;47.43
63500;BME280;49654;51.142;14.924;2023-06-24T18:41:13;99775.97;;;23.73;49.02
63500;BME280;49654;51.142;14.924;2023-06-24T18:43:40;99766.09;;;23.30;50.40
63500;BME280;49654;51.142;14.924;2023-06-24T18:46:07;99701.72;;;22.62;52.49
63500;BME280;49654;51.142;14.924;2023-06-24T18:48:36;99707.72;;;22.41;53.36
63500;BME280;49654;51.142;14.924;2023-06-24T18:51:03;99781.69;;;22.64;54.05
63500;BME280;49654;51.142;14.924;2023-06-24T18:53:30;99710.06;;;21.97;55.34
63500;BME280;49654;51.142;14.924;2023-06-24T18:55:58;99779.31;;;22.22;55.98
63500;BME280;49654;51.142;14.924;2023-06-24T18:58:25;99756.09;;;21.84;57.43
63500;BME280;49654;51.142;14.924;2023-06-24T19:00:52;99761.50;;;21.66;57.85
63500;BME280;49654;51.142;14.924;2023-06-24T19:03:19;99771.53;;;21.52;58.53
63500;BME280;49654;51.142;14.924;2023-06-24T19:05:47;99755.06;;;21.15;59.23
63500;BME280;49654;51.142;14.924;2023-06-24T19:08:14;99788.72;;;21.19;60.04
63500;BME280;49654;51.142;14.924;2023-06-24T19:10:43;99788.38;;;21.04;61.16
63500;BME280;49654;51.142;14.924;2023-06-24T19:13:12;99793.47;;;20.75;62.17
63500;BME280;49654;51.142;14.924;2023-06-24T19:15:39;99778.06;;;20.61;63.08
63500;BME280;49654;51.142;14.924;2023-06-24T19:18:06;99789.88;;;20.58;63.54